createdAt,value
2018-11-02T00:00:04.850Z,15.82
2018-11-02T00:01:04.861Z,15.89
2018-11-02T00:02:04.881Z,15.82
2018-11-02T00:03:04.894Z,15.84
2018-11-02T00:04:04.919Z,15.86
2018-11-02T00:05:04.973Z,15.86
2018-11-02T00:06:04.955Z,15.93
2018-11-02T00:07:04.971Z,15.90
2018-11-02T00:08:04.987Z,15.96
2018-11-02T00:09:05.004Z,16.01
2018-11-02T00:10:05.029Z,16.04
2018-11-02T00:11:05.052Z,15.92
2018-11-02T00:12:05.124Z,16.00
2018-11-02T00:13:05.078Z,15.90
2018-11-02T00:14:05.096Z,15.94
2018-11-02T00:15:05.113Z,15.97
2018-11-02T00:16:05.147Z,16.01
2018-11-02T00:17:05.210Z,15.90
2018-11-02T00:18:05.173Z,15.89
2018-11-02T00:19:05.182Z,16.00
2018-11-02T00:20:05.197Z,16.01
2018-11-02T00:21:05.227Z,16.07
2018-11-02T00:22:05.240Z,16.04
2018-11-02T00:23:05.260Z,15.96
2018-11-02T00:24:05.285Z,16.01
2018-11-02T00:25:05.302Z,16.01
2018-11-02T00:26:05.316Z,16.00
2018-11-02T00:27:05.337Z,15.97
2018-11-02T00:28:05.346Z,16.07
2018-11-02T00:29:05.372Z,16.08
2018-11-02T00:30:05.382Z,16.09
2018-11-02T00:31:05.407Z,16.15
2018-11-02T00:32:05.520Z,16.17
2018-11-02T00:33:05.444Z,16.31
2018-11-02T00:34:05.463Z,16.24
2018-11-02T00:35:05.528Z,16.14
2018-11-02T00:36:05.500Z,16.15
2018-11-02T00:37:05.513Z,16.12
2018-11-02T00:38:05.537Z,16.21
2018-11-02T00:39:05.554Z,16.28
2018-11-02T00:40:05.575Z,16.12
2018-11-02T00:41:05.631Z,16.21
2018-11-02T00:42:05.603Z,16.12
2018-11-02T00:43:05.618Z,16.17
2018-11-02T00:44:05.668Z,16.12
2018-11-02T00:45:05.658Z,16.12
2018-11-02T00:46:05.724Z,16.12
2018-11-02T00:47:05.692Z,16.08
2018-11-02T00:48:05.715Z,16.15
2018-11-02T00:49:05.730Z,16.11
2018-11-02T00:50:05.752Z,16.11
2018-11-02T00:51:05.781Z,16.12
2018-11-02T00:52:05.790Z,16.04
2018-11-02T00:53:05.803Z,16.09
2018-11-02T00:54:05.827Z,16.15
2018-11-02T00:55:05.838Z,16.05
2018-11-02T00:56:05.865Z,16.14
2018-11-02T00:57:05.879Z,16.14
2018-11-02T00:58:05.923Z,16.15
2018-11-02T00:59:05.915Z,16.11
2018-11-02T01:00:05.968Z,16.12
2018-11-02T01:01:05.957Z,16.12
2018-11-02T01:02:05.976Z,16.08
2018-11-02T01:03:05.999Z,16.11
2018-11-02T01:04:06.009Z,16.23
2018-11-02T01:05:06.029Z,16.15
2018-11-02T01:06:06.049Z,16.11
2018-11-02T01:07:06.063Z,16.11
2018-11-02T01:08:06.078Z,16.17
2018-11-02T01:09:06.107Z,16.14
2018-11-02T01:10:06.122Z,16.15
2018-11-02T01:11:06.141Z,16.17
2018-11-02T01:12:06.155Z,16.27
2018-11-02T01:13:06.183Z,16.15
2018-11-02T01:14:06.187Z,16.23
2018-11-02T01:15:06.215Z,16.11
2018-11-02T01:16:06.233Z,16.15
2018-11-02T01:17:06.250Z,16.21
2018-11-02T01:18:06.268Z,16.14
2018-11-02T01:19:06.281Z,16.09
2018-11-02T01:20:06.299Z,16.07
2018-11-02T01:21:06.316Z,16.09
2018-11-02T01:22:06.339Z,16.14
2018-11-02T01:23:06.387Z,16.14
2018-11-02T01:24:06.377Z,16.07
2018-11-02T01:25:06.423Z,15.93
2018-11-02T01:26:06.413Z,16.02
2018-11-02T01:27:06.434Z,16.00
2018-11-02T01:28:06.460Z,16.00
2018-11-02T01:29:06.520Z,16.02
2018-11-02T01:30:06.484Z,16.04
2018-11-02T01:31:06.504Z,16.01
2018-11-02T01:32:06.530Z,16.04
2018-11-02T01:33:06.536Z,15.97
2018-11-02T01:34:06.564Z,15.96
2018-11-02T01:35:06.582Z,15.97
2018-11-02T01:36:06.601Z,16.02
2018-11-02T01:37:06.621Z,15.97
2018-11-02T01:38:06.632Z,16.01
2018-11-02T01:39:06.653Z,16.07
2018-11-02T01:40:06.677Z,16.08
2018-11-02T01:41:06.693Z,16.00
2018-11-02T01:42:06.707Z,16.00
2018-11-02T01:43:06.733Z,16.08
2018-11-02T01:44:06.749Z,16.08
2018-11-02T01:45:06.763Z,16.07
2018-11-02T01:46:06.784Z,16.12
2018-11-02T01:47:06.798Z,16.14
2018-11-02T01:48:06.811Z,16.11
2018-11-02T01:49:06.835Z,16.08
2018-11-02T01:50:06.856Z,16.09
2018-11-02T01:51:06.875Z,16.15
2018-11-02T01:52:06.895Z,16.17
2018-11-02T01:53:06.915Z,16.17
2018-11-02T01:54:06.927Z,16.12
2018-11-02T01:55:06.944Z,16.15
2018-11-02T01:56:06.970Z,16.12
2018-11-02T01:57:06.991Z,16.28
2018-11-02T01:58:07.007Z,16.23
2018-11-02T01:59:07.019Z,16.14
2018-11-02T02:00:07.047Z,16.20
2018-11-02T02:01:07.061Z,16.25
2018-11-02T02:02:07.077Z,16.21
2018-11-02T02:03:07.096Z,16.21
2018-11-02T02:04:07.115Z,16.21
2018-11-02T02:05:07.126Z,16.14
2018-11-02T02:06:07.160Z,16.14
2018-11-02T02:07:07.168Z,16.28
2018-11-02T02:08:07.188Z,16.30
2018-11-02T02:09:07.212Z,16.27
2018-11-02T02:10:07.247Z,16.28
2018-11-02T02:11:07.244Z,16.23
2018-11-02T02:12:07.265Z,16.14
2018-11-02T02:13:07.324Z,16.15
2018-11-02T02:14:07.300Z,16.11
2018-11-02T02:15:07.314Z,16.11
2018-11-02T02:16:07.331Z,16.15
2018-11-02T02:17:07.349Z,16.08
2018-11-02T02:18:07.367Z,15.96
2018-11-02T02:19:07.388Z,15.94
2018-11-02T02:20:07.434Z,16.08
2018-11-02T02:21:07.420Z,16.08
2018-11-02T02:22:07.442Z,16.07
2018-11-02T02:23:07.460Z,16.09
2018-11-02T02:24:07.483Z,16.05
2018-11-02T02:25:07.493Z,16.07
2018-11-02T02:26:07.522Z,16.12
2018-11-02T02:27:07.529Z,16.02
2018-11-02T02:28:07.554Z,16.04
2018-11-02T02:29:07.569Z,16.07
2018-11-02T02:30:07.586Z,16.05
2018-11-02T02:31:07.611Z,16.02
2018-11-02T02:32:07.620Z,15.96
2018-11-02T02:33:07.642Z,16.00
2018-11-02T02:34:07.661Z,16.00
2018-11-02T02:35:07.683Z,15.94
2018-11-02T02:36:07.701Z,15.94
2018-11-02T02:37:07.714Z,15.96
2018-11-02T02:38:07.727Z,15.97
2018-11-02T02:39:07.750Z,16.00
2018-11-02T02:40:07.774Z,15.97
2018-11-02T02:41:07.791Z,16.04
2018-11-02T02:42:07.812Z,16.07
2018-11-02T02:43:07.824Z,16.02
2018-11-02T02:44:07.849Z,16.00
2018-11-02T02:45:07.865Z,15.96
2018-11-02T02:46:07.887Z,16.01
2018-11-02T02:47:07.978Z,15.94
2018-11-02T02:48:07.916Z,15.90
2018-11-02T02:49:07.932Z,15.86
2018-11-02T02:50:07.960Z,15.86
2018-11-02T02:51:07.976Z,15.86
2018-11-02T02:52:07.989Z,15.89
2018-11-02T02:53:08.031Z,15.97
2018-11-02T02:54:08.056Z,15.86
2018-11-02T02:55:08.049Z,15.84
2018-11-02T02:56:08.064Z,15.90
2018-11-02T02:57:08.072Z,15.84
2018-11-02T02:58:08.092Z,15.83
2018-11-02T02:59:08.119Z,15.84
2018-11-02T03:00:08.132Z,15.87
2018-11-02T03:01:08.155Z,15.87
2018-11-02T03:02:08.170Z,15.90
2018-11-02T03:03:08.188Z,15.94
2018-11-02T03:04:08.244Z,16.00
2018-11-02T03:05:08.230Z,15.96
2018-11-02T03:06:08.243Z,15.96
2018-11-02T03:07:08.267Z,15.97
2018-11-02T03:08:08.282Z,15.93
2018-11-02T03:09:08.306Z,15.83
2018-11-02T03:10:08.314Z,15.84
2018-11-02T03:11:08.524Z,15.72
2018-11-02T03:12:08.365Z,15.80
2018-11-02T03:13:08.409Z,15.82
2018-11-02T03:14:08.415Z,15.80
2018-11-02T03:15:08.403Z,15.78
2018-11-02T03:16:08.427Z,15.72
2018-11-02T03:17:08.445Z,15.80
2018-11-02T03:18:08.466Z,15.68
2018-11-02T03:19:08.502Z,15.78
2018-11-02T03:20:08.516Z,15.74
2018-11-02T03:21:08.522Z,15.80
2018-11-02T03:22:08.535Z,15.82
2018-11-02T03:23:08.562Z,15.86
2018-11-02T03:24:08.569Z,15.86
2018-11-02T03:25:08.585Z,15.84
2018-11-02T03:26:08.617Z,15.80
2018-11-02T03:27:08.632Z,15.78
2018-11-02T03:28:08.645Z,15.82
2018-11-02T03:29:08.682Z,15.75
2018-11-02T03:30:08.686Z,15.84
2018-11-02T03:31:08.700Z,15.68
2018-11-02T03:32:08.727Z,15.69
2018-11-02T03:33:08.740Z,15.74
2018-11-02T03:34:08.761Z,15.83
2018-11-02T03:35:08.814Z,15.84
2018-11-02T03:36:08.801Z,15.90
2018-11-02T03:37:08.825Z,15.86
2018-11-02T03:38:08.833Z,15.80
2018-11-02T03:39:08.845Z,15.83
2018-11-02T03:40:08.861Z,15.90
2018-11-02T03:41:08.881Z,15.93
2018-11-02T03:42:08.894Z,15.86
2018-11-02T03:43:08.939Z,15.93
2018-11-02T03:44:08.942Z,16.00
2018-11-02T03:45:08.952Z,16.02
2018-11-02T03:46:08.975Z,15.87
2018-11-02T03:47:09.081Z,16.00
2018-11-02T03:48:09.007Z,15.97
2018-11-02T03:49:09.026Z,15.93
2018-11-02T03:50:09.082Z,15.92
2018-11-02T03:51:09.063Z,15.86
2018-11-02T03:52:09.501Z,15.86
2018-11-02T03:53:09.105Z,15.89
2018-11-02T03:54:09.125Z,15.80
2018-11-02T03:55:09.137Z,15.76
2018-11-02T03:56:09.158Z,15.80
2018-11-02T03:57:09.186Z,15.67
2018-11-02T03:58:09.193Z,15.68
2018-11-02T03:59:09.223Z,15.69
2018-11-02T04:00:09.550Z,15.53
2018-11-02T04:01:09.290Z,15.67
2018-11-02T04:02:09.268Z,15.67
2018-11-02T04:03:09.288Z,15.64
2018-11-02T04:04:09.312Z,15.62
2018-11-02T04:05:09.321Z,15.60
2018-11-02T04:06:09.345Z,15.54
2018-11-02T04:07:09.361Z,15.54
2018-11-02T04:08:09.381Z,15.46
2018-11-02T04:09:09.400Z,15.41
2018-11-02T04:10:09.420Z,15.46
2018-11-02T04:11:09.434Z,15.39
2018-11-02T04:12:09.476Z,15.41
2018-11-02T04:13:09.467Z,15.39
2018-11-02T04:14:09.515Z,15.34
2018-11-02T04:15:09.505Z,15.47
2018-11-02T04:16:09.524Z,15.54
2018-11-02T04:17:09.545Z,15.56
2018-11-02T04:18:09.570Z,15.51
2018-11-02T04:19:09.570Z,15.53
2018-11-02T04:20:09.593Z,15.46
2018-11-02T04:21:09.608Z,15.46
2018-11-02T04:22:09.638Z,15.50
2018-11-02T04:23:09.647Z,15.49
2018-11-02T04:24:09.660Z,15.47
2018-11-02T04:25:09.679Z,15.53
2018-11-02T04:26:09.704Z,15.59
2018-11-02T04:27:09.721Z,15.50
2018-11-02T04:28:09.801Z,15.60
2018-11-02T04:29:09.754Z,15.59
2018-11-02T04:30:09.773Z,15.57
2018-11-02T04:31:09.921Z,15.56
2018-11-02T04:32:09.814Z,15.60
2018-11-02T04:33:09.840Z,15.57
2018-11-02T04:34:09.848Z,15.47
2018-11-02T04:35:09.867Z,15.41
2018-11-02T04:36:09.924Z,15.57
2018-11-02T04:37:09.903Z,15.54
2018-11-02T04:38:09.918Z,15.64
2018-11-02T04:39:09.945Z,15.69
2018-11-02T04:40:10.005Z,15.65
2018-11-02T04:41:09.977Z,15.62
2018-11-02T04:42:09.996Z,15.60
2018-11-02T04:43:10.017Z,15.65
2018-11-02T04:44:10.032Z,15.57
2018-11-02T04:45:10.051Z,15.60
2018-11-02T04:46:10.093Z,15.68
2018-11-02T04:47:10.122Z,15.68
2018-11-02T04:48:10.140Z,15.78
2018-11-02T04:49:10.118Z,15.76
2018-11-02T04:50:10.157Z,15.76
2018-11-02T04:51:10.168Z,15.82
2018-11-02T04:52:10.248Z,15.75
2018-11-02T04:53:10.199Z,15.75
2018-11-02T04:54:10.211Z,15.83
2018-11-02T04:55:10.249Z,15.90
2018-11-02T04:56:10.257Z,15.92
2018-11-02T04:57:10.269Z,15.78
2018-11-02T04:58:10.283Z,15.94
2018-11-02T04:59:10.296Z,16.01
2018-11-02T05:00:10.318Z,15.93
2018-11-02T05:01:10.346Z,15.96
2018-11-02T05:02:10.363Z,15.96
2018-11-02T05:03:10.378Z,15.96
2018-11-02T05:04:10.400Z,16.02
2018-11-02T05:05:10.413Z,16.02
2018-11-02T05:06:10.475Z,16.02
2018-11-02T05:07:10.451Z,16.00
2018-11-02T05:08:10.468Z,16.05
2018-11-02T05:09:10.486Z,16.05
2018-11-02T05:10:10.504Z,15.97
2018-11-02T05:11:10.600Z,15.96
2018-11-02T05:12:10.537Z,16.00
2018-11-02T05:13:10.568Z,15.94
2018-11-02T05:14:10.585Z,15.89
2018-11-02T05:15:10.594Z,15.90
2018-11-02T05:16:10.610Z,15.93
2018-11-02T05:17:10.632Z,16.05
2018-11-02T05:18:10.700Z,16.04
2018-11-02T05:19:10.666Z,16.02
2018-11-02T05:20:10.687Z,15.97
2018-11-02T05:21:10.754Z,15.92
2018-11-02T05:22:10.725Z,15.92
2018-11-02T05:23:10.752Z,16.02
2018-11-02T05:24:10.758Z,15.96
2018-11-02T05:25:10.784Z,16.02
2018-11-02T05:26:10.796Z,15.92
2018-11-02T05:27:10.814Z,15.97
2018-11-02T05:28:10.850Z,16.04
2018-11-02T05:29:10.858Z,15.94
2018-11-02T05:30:10.874Z,15.97
2018-11-02T05:31:10.892Z,15.96
2018-11-02T05:32:10.912Z,15.97
2018-11-02T05:33:10.932Z,16.01
2018-11-02T05:34:10.946Z,15.97
2018-11-02T05:35:10.967Z,15.92
2018-11-02T05:36:10.982Z,16.00
2018-11-02T05:37:11.009Z,16.04
2018-11-02T05:38:11.017Z,16.01
2018-11-02T05:39:11.037Z,16.04
2018-11-02T05:40:11.056Z,16.04
2018-11-02T05:41:11.073Z,16.01
2018-11-02T05:42:11.095Z,16.04
2018-11-02T05:43:11.117Z,15.93
2018-11-02T05:44:11.133Z,15.97
2018-11-02T05:45:11.148Z,16.00
2018-11-02T05:46:11.161Z,16.01
2018-11-02T05:47:11.225Z,16.02
2018-11-02T05:48:11.204Z,16.04
2018-11-02T05:49:11.225Z,16.01
2018-11-02T05:50:11.248Z,16.05
2018-11-02T05:51:11.255Z,16.14
2018-11-02T05:52:11.291Z,16.12
2018-11-02T05:53:11.296Z,16.04
2018-11-02T05:54:11.390Z,16.07
2018-11-02T05:55:11.336Z,16.04
2018-11-02T05:56:11.345Z,16.02
2018-11-02T05:57:11.380Z,16.14
2018-11-02T05:58:11.390Z,16.09
2018-11-02T05:59:11.405Z,16.14
2018-11-02T06:00:11.450Z,16.14
2018-11-02T06:01:11.474Z,16.15
2018-11-02T06:02:11.459Z,16.17
2018-11-02T06:03:11.547Z,16.25
2018-11-02T06:04:11.499Z,16.20
2018-11-02T06:05:11.510Z,16.25
2018-11-02T06:06:11.537Z,16.28
2018-11-02T06:07:11.550Z,16.24
2018-11-02T06:08:11.569Z,16.28
2018-11-02T06:09:11.648Z,16.15
2018-11-02T06:10:11.612Z,16.11
2018-11-02T06:11:11.618Z,16.14
2018-11-02T06:12:11.647Z,16.08
2018-11-02T06:13:11.661Z,16.00
2018-11-02T06:14:11.679Z,15.96
2018-11-02T06:15:11.703Z,16.00
2018-11-02T06:16:11.715Z,16.00
2018-11-02T06:17:11.752Z,15.94
2018-11-02T06:18:11.755Z,16.01
2018-11-02T06:19:11.775Z,15.92
2018-11-02T06:20:11.802Z,15.96
2018-11-02T06:21:11.814Z,16.02
2018-11-02T06:22:11.826Z,15.96
2018-11-02T06:23:11.847Z,16.00
2018-11-02T06:24:11.953Z,15.93
2018-11-02T06:25:11.884Z,16.00
2018-11-02T06:26:11.906Z,15.94
2018-11-02T06:27:11.922Z,15.86
2018-11-02T06:28:11.936Z,15.84
2018-11-02T06:29:11.955Z,15.84
2018-11-02T06:30:11.981Z,15.86
2018-11-02T06:31:11.992Z,15.89
2018-11-02T06:32:12.033Z,15.86
2018-11-02T06:33:12.026Z,15.87
2018-11-02T06:34:12.040Z,15.86
2018-11-02T06:35:12.059Z,15.96
2018-11-02T06:36:12.126Z,15.86
2018-11-02T06:37:12.098Z,15.93
2018-11-02T06:38:12.198Z,15.87
2018-11-02T06:39:12.130Z,15.82
2018-11-02T06:40:12.148Z,15.96
2018-11-02T06:41:12.173Z,15.86
2018-11-02T06:42:12.194Z,15.93
2018-11-02T06:43:12.208Z,15.92
2018-11-02T06:44:12.233Z,15.96
2018-11-02T06:45:12.264Z,15.83
2018-11-02T06:46:12.272Z,15.96
2018-11-02T06:47:12.292Z,15.93
2018-11-02T06:48:12.297Z,15.97
2018-11-02T06:49:12.318Z,15.97
2018-11-02T06:50:12.390Z,16.01
2018-11-02T06:51:12.354Z,15.97
2018-11-02T06:52:12.383Z,16.01
2018-11-02T06:53:12.388Z,16.05
2018-11-02T06:54:12.403Z,15.97
2018-11-02T06:55:12.424Z,16.04
2018-11-02T06:56:12.448Z,16.00
2018-11-02T06:57:12.456Z,15.93
2018-11-02T06:58:12.485Z,15.97
2018-11-02T06:59:12.576Z,15.96
2018-11-02T07:00:12.542Z,16.01
2018-11-02T07:01:12.531Z,15.97
2018-11-02T07:02:12.566Z,16.00
2018-11-02T07:03:12.577Z,16.00
2018-11-02T07:04:12.587Z,15.93
2018-11-02T07:05:12.608Z,16.00
2018-11-02T07:06:12.629Z,15.97
2018-11-02T07:07:12.689Z,15.96
2018-11-02T07:08:12.899Z,15.94
2018-11-02T07:09:12.683Z,15.96
2018-11-02T07:10:12.709Z,15.94
2018-11-02T07:11:12.721Z,16.00
2018-11-02T07:12:12.742Z,15.96
2018-11-02T07:13:12.755Z,15.84
2018-11-02T07:14:12.819Z,15.83
2018-11-02T07:15:12.793Z,15.86
2018-11-02T07:16:12.809Z,15.83
2018-11-02T07:17:12.833Z,15.87
2018-11-02T07:18:12.866Z,15.89
2018-11-02T07:19:12.863Z,15.84
2018-11-02T07:20:12.892Z,15.92
2018-11-02T07:21:12.903Z,15.84
2018-11-02T07:22:12.927Z,15.93
2018-11-02T07:23:12.949Z,15.84
2018-11-02T07:24:12.958Z,15.86
2018-11-02T07:25:13.133Z,15.84
2018-11-02T07:26:12.989Z,15.96
2018-11-02T07:27:13.008Z,15.90
2018-11-02T07:28:13.027Z,15.86
2018-11-02T07:29:13.045Z,15.82
2018-11-02T07:30:13.063Z,15.87
2018-11-02T07:31:13.087Z,15.86
2018-11-02T07:32:13.143Z,15.86
2018-11-02T07:33:13.127Z,15.94
2018-11-02T07:34:13.159Z,15.93
2018-11-02T07:35:13.160Z,15.93
2018-11-02T07:36:13.171Z,15.94
2018-11-02T07:37:13.197Z,15.94
2018-11-02T07:38:13.213Z,15.90
2018-11-02T07:39:13.228Z,15.96
2018-11-02T07:40:13.252Z,16.02
2018-11-02T07:41:13.270Z,16.02
2018-11-02T07:42:13.289Z,16.01
2018-11-02T07:43:13.304Z,15.97
2018-11-02T07:44:13.321Z,15.96
2018-11-02T07:45:13.370Z,15.97
2018-11-02T07:46:13.355Z,15.92
2018-11-02T07:47:13.373Z,16.07
2018-11-02T07:48:13.391Z,16.52
2018-11-02T07:49:13.417Z,17.15
2018-11-02T07:50:13.448Z,17.75
2018-11-02T07:51:13.446Z,18.00
2018-11-02T07:52:13.469Z,18.42
2018-11-02T07:53:13.486Z,18.98
2018-11-02T07:54:13.504Z,19.22
2018-11-02T07:55:13.527Z,19.47
2018-11-02T07:56:13.592Z,19.48
2018-11-02T07:57:13.566Z,20.01
2018-11-02T07:58:13.584Z,20.08
2018-11-02T07:59:13.598Z,20.54
2018-11-02T08:00:13.618Z,20.73
2018-11-02T08:01:13.634Z,20.99
2018-11-02T08:02:13.658Z,21.32
2018-11-02T08:03:13.670Z,21.52
2018-11-02T08:04:13.696Z,21.37
2018-11-02T08:05:13.725Z,20.76
2018-11-02T08:06:13.737Z,19.98
2018-11-02T08:07:13.760Z,19.68
2018-11-02T08:08:13.854Z,19.29
2018-11-02T08:09:13.793Z,19.21
2018-11-02T08:10:13.814Z,18.69
2018-11-02T08:11:13.902Z,18.52
2018-11-02T08:12:13.906Z,18.70
2018-11-02T08:13:13.874Z,18.44
2018-11-02T08:14:13.977Z,18.32
2018-11-02T08:15:13.915Z,18.27
2018-11-02T08:16:13.930Z,18.17
2018-11-02T08:17:13.946Z,17.93
2018-11-02T08:18:13.965Z,17.71
2018-11-02T08:19:13.986Z,17.62
2018-11-02T08:20:14.025Z,17.26
2018-11-02T08:21:14.022Z,17.25
2018-11-02T08:22:14.048Z,17.22
2018-11-02T08:23:14.063Z,17.28
2018-11-02T08:24:14.088Z,17.16
2018-11-02T08:25:14.109Z,17.21
2018-11-02T08:26:14.125Z,17.26
2018-11-02T08:27:14.144Z,17.18
2018-11-02T08:28:14.158Z,17.16
2018-11-02T08:29:14.178Z,17.18
2018-11-02T08:30:14.403Z,17.06
2018-11-02T08:31:14.217Z,17.12
2018-11-02T08:32:14.357Z,17.12
2018-11-02T08:33:14.260Z,17.12
2018-11-02T08:34:14.280Z,17.08
2018-11-02T08:35:14.292Z,17.04
2018-11-02T08:36:14.316Z,16.97
2018-11-02T08:37:14.338Z,17.00
2018-11-02T08:38:14.356Z,16.97
2018-11-02T08:39:14.366Z,17.03
2018-11-02T08:40:14.391Z,17.06
2018-11-02T08:41:14.405Z,17.11
2018-11-02T08:42:14.431Z,17.12
2018-11-02T08:43:14.447Z,17.12
2018-11-02T08:44:14.505Z,17.11
2018-11-02T08:45:14.477Z,17.08
2018-11-02T08:46:14.536Z,17.25
2018-11-02T08:47:14.517Z,17.16
2018-11-02T08:48:14.539Z,17.36
2018-11-02T08:49:14.557Z,17.41
2018-11-02T08:50:14.577Z,17.37
2018-11-02T08:51:14.603Z,17.48
2018-11-02T08:52:14.630Z,17.62
2018-11-02T08:53:14.634Z,17.51
2018-11-02T08:54:14.645Z,17.54
2018-11-02T08:55:14.669Z,17.54
2018-11-02T08:56:14.700Z,17.52
2018-11-02T08:57:14.706Z,17.44
2018-11-02T08:58:14.896Z,17.40
2018-11-02T08:59:14.872Z,17.38
2018-11-02T09:00:14.824Z,17.49
2018-11-02T09:01:14.781Z,17.58
2018-11-02T09:02:14.798Z,17.66
2018-11-02T09:03:14.821Z,17.74
2018-11-02T09:04:14.838Z,17.68
2018-11-02T09:05:15.076Z,17.58
2018-11-02T09:06:14.879Z,17.71
2018-11-02T09:07:14.889Z,17.68
2018-11-02T09:08:14.909Z,17.71
2018-11-02T09:09:14.931Z,17.72
2018-11-02T09:10:14.946Z,17.79
2018-11-02T09:11:14.964Z,17.77
2018-11-02T09:12:15.092Z,17.71
2018-11-02T09:13:15.008Z,17.82
2018-11-02T09:14:15.021Z,17.84
2018-11-02T09:15:15.054Z,17.78
2018-11-02T09:16:15.071Z,17.89
2018-11-02T09:17:15.078Z,17.82
2018-11-02T09:18:15.095Z,17.90
2018-11-02T09:19:15.157Z,17.95
2018-11-02T09:20:15.129Z,17.89
2018-11-02T09:21:15.151Z,17.97
2018-11-02T09:22:15.181Z,18.00
2018-11-02T09:23:15.395Z,18.08
2018-11-02T09:24:15.404Z,18.05
2018-11-02T09:25:15.224Z,18.08
2018-11-02T09:26:15.262Z,17.97
2018-11-02T09:27:15.271Z,18.07
2018-11-02T09:28:15.329Z,18.11
2018-11-02T09:29:15.301Z,18.00
2018-11-02T09:30:15.316Z,17.96
2018-11-02T09:31:15.386Z,18.07
2018-11-02T09:32:15.420Z,18.03
2018-11-02T09:33:15.371Z,18.23
2018-11-02T09:34:15.392Z,18.23
2018-11-02T09:35:15.440Z,18.20
2018-11-02T09:36:15.433Z,18.30
2018-11-02T09:37:15.455Z,18.26
2018-11-02T09:38:15.528Z,18.41
2018-11-02T09:39:15.489Z,18.57
2018-11-02T09:40:15.521Z,18.58
2018-11-02T09:41:15.526Z,18.70
2018-11-02T09:42:15.551Z,18.81
2018-11-02T09:43:15.567Z,19.18
2018-11-02T09:44:15.581Z,19.41
2018-11-02T09:45:15.602Z,19.48
2018-11-02T09:46:15.617Z,19.78
2018-11-02T09:47:15.642Z,19.88
2018-11-02T09:48:15.659Z,19.91
2018-11-02T09:49:15.686Z,19.87
2018-11-02T09:50:15.693Z,19.81
2018-11-02T09:51:15.805Z,20.01
2018-11-02T09:52:15.739Z,20.02
2018-11-02T09:53:15.757Z,19.80
2018-11-02T09:54:15.781Z,19.73
2018-11-02T09:55:15.798Z,19.76
2018-11-02T09:56:15.820Z,19.99
2018-11-02T09:57:15.849Z,19.94
2018-11-02T09:58:15.849Z,19.76
2018-11-02T09:59:15.865Z,19.73
2018-11-02T10:00:15.887Z,20.29
2018-11-02T10:01:15.945Z,20.61
2018-11-02T10:02:15.986Z,20.35
2018-11-02T10:03:15.951Z,20.06
2018-11-02T10:04:15.961Z,20.67
2018-11-02T10:05:15.980Z,20.62
2018-11-02T10:06:16.004Z,20.98
2018-11-02T10:07:16.021Z,20.92
2018-11-02T10:08:16.039Z,21.31
2018-11-02T10:09:16.121Z,21.64
2018-11-02T10:10:16.082Z,21.65
2018-11-02T10:11:16.098Z,21.69
2018-11-02T10:12:16.116Z,22.20
2018-11-02T10:13:16.138Z,22.20
2018-11-02T10:14:16.159Z,21.49
2018-11-02T10:15:16.179Z,21.32
2018-11-02T10:16:16.195Z,21.54
2018-11-02T10:17:16.221Z,20.91
2018-11-02T10:18:16.239Z,20.47
2018-11-02T10:19:16.258Z,20.20
2018-11-02T10:20:16.279Z,19.99
2018-11-02T10:21:16.291Z,20.02
2018-11-02T10:22:16.315Z,20.11
2018-11-02T10:23:16.332Z,20.67
2018-11-02T10:24:16.355Z,20.94
2018-11-02T10:25:16.382Z,21.59
2018-11-02T10:26:16.391Z,21.96
2018-11-02T10:27:16.420Z,22.47
2018-11-02T10:28:16.461Z,22.45
2018-11-02T10:29:16.450Z,22.51
2018-11-02T10:30:16.474Z,21.83
2018-11-02T10:31:16.575Z,21.67
2018-11-02T10:32:16.544Z,21.58
2018-11-02T10:33:16.541Z,22.27
2018-11-02T10:34:16.551Z,22.57
2018-11-02T10:35:16.621Z,23.05
2018-11-02T10:36:16.593Z,22.92
2018-11-02T10:37:16.666Z,23.60
2018-11-02T10:38:16.633Z,24.15
2018-11-02T10:39:16.948Z,24.43
2018-11-02T10:40:16.678Z,23.66
2018-11-02T10:41:16.693Z,24.16
2018-11-02T10:42:16.720Z,24.39
2018-11-02T10:43:16.848Z,24.10
2018-11-02T10:44:16.821Z,23.53
2018-11-02T10:45:16.799Z,22.90
2018-11-02T10:46:16.792Z,22.36
2018-11-02T10:47:16.821Z,21.94
2018-11-02T10:48:16.840Z,21.58
2018-11-02T10:49:16.932Z,21.10
2018-11-02T10:50:16.884Z,21.14
2018-11-02T10:51:16.924Z,21.80
2018-11-02T10:52:16.924Z,22.67
2018-11-02T10:53:16.937Z,23.07
2018-11-02T10:55:17.018Z,23.46
2018-11-02T10:56:16.996Z,23.87
2018-11-02T10:57:17.026Z,24.61
2018-11-02T10:58:17.048Z,24.91
2018-11-02T10:59:17.067Z,24.55
2018-11-02T11:00:17.093Z,24.60
2018-11-02T11:01:17.198Z,25.03
2018-11-02T11:02:17.129Z,25.47
2018-11-02T11:03:17.140Z,25.77
2018-11-02T11:04:17.168Z,25.64
2018-11-02T11:05:17.290Z,25.90
2018-11-02T11:06:17.210Z,25.83
2018-11-02T11:07:17.258Z,26.01
2018-11-02T11:08:17.245Z,25.64
2018-11-02T11:09:17.275Z,25.15
2018-11-02T11:10:17.292Z,24.60
2018-11-02T11:11:17.319Z,24.60
2018-11-02T11:12:17.471Z,24.65
2018-11-02T11:13:17.830Z,24.47
2018-11-02T11:14:17.376Z,24.42
2018-11-02T11:15:17.398Z,24.55
2018-11-02T11:16:17.422Z,25.18
2018-11-02T11:17:17.443Z,25.75
2018-11-02T11:18:17.467Z,24.95
2018-11-02T11:19:17.490Z,24.65
2018-11-02T11:20:17.503Z,25.55
2018-11-02T11:21:17.609Z,25.70
2018-11-02T11:22:17.547Z,25.88
2018-11-02T11:23:17.568Z,25.32
2018-11-02T11:24:17.597Z,24.76
2018-11-02T11:25:17.612Z,24.95
2018-11-02T11:26:17.639Z,24.58
2018-11-02T11:27:17.714Z,24.08
2018-11-02T11:28:17.679Z,23.38
2018-11-02T11:29:17.717Z,23.68
2018-11-02T11:30:17.732Z,23.73
2018-11-02T11:31:17.782Z,23.17
2018-11-02T11:32:17.767Z,22.85
2018-11-02T11:33:17.791Z,22.18
2018-11-02T11:34:17.814Z,22.28
2018-11-02T11:35:17.833Z,22.06
2018-11-02T11:36:17.855Z,21.62
2018-11-02T11:37:17.877Z,21.62
2018-11-02T11:38:17.890Z,21.61
2018-11-02T11:39:17.911Z,21.32
2018-11-02T11:40:17.941Z,20.98
2018-11-02T11:41:17.957Z,21.01
2018-11-02T11:42:18.013Z,20.69
2018-11-02T11:43:17.998Z,20.41
2018-11-02T11:44:18.015Z,20.06
2018-11-02T11:45:18.032Z,20.17
2018-11-02T11:46:18.063Z,20.21
2018-11-02T11:47:18.077Z,20.13
2018-11-02T11:48:18.136Z,20.10
2018-11-02T11:49:18.206Z,20.24
2018-11-02T11:50:18.145Z,20.31
2018-11-02T11:51:18.158Z,20.61
2018-11-02T11:52:18.182Z,20.74
2018-11-02T11:53:18.198Z,21.13
2018-11-02T11:54:18.316Z,21.64
2018-11-02T11:55:18.237Z,22.33
2018-11-02T11:56:18.264Z,22.90
2018-11-02T11:57:18.281Z,22.85
2018-11-02T11:58:18.299Z,22.97
2018-11-02T11:59:18.325Z,23.02
2018-11-02T12:00:18.384Z,22.61
2018-11-02T12:01:18.364Z,22.65
2018-11-02T12:02:18.519Z,22.73
2018-11-02T12:03:18.405Z,22.58
2018-11-02T12:04:18.440Z,23.00
2018-11-02T12:05:18.437Z,23.68
2018-11-02T12:06:18.527Z,24.25
2018-11-02T12:07:18.489Z,24.58
2018-11-02T12:08:18.508Z,24.76
2018-11-02T12:09:18.651Z,25.18
2018-11-02T12:10:18.549Z,25.10
2018-11-02T12:11:18.561Z,23.93
2018-11-02T12:12:18.596Z,23.54
2018-11-02T12:13:18.613Z,24.00
2018-11-02T12:14:18.627Z,24.55
2018-11-02T12:15:18.660Z,24.96
2018-11-02T12:16:18.669Z,25.38
2018-11-02T12:17:18.693Z,25.23
2018-11-02T12:18:18.715Z,25.17
2018-11-02T12:19:18.736Z,25.50
2018-11-02T12:20:18.752Z,25.32
2018-11-02T12:21:18.779Z,25.42
2018-11-02T12:22:18.799Z,25.36
2018-11-02T12:23:18.864Z,26.07
2018-11-02T12:24:18.843Z,26.09
2018-11-02T12:25:18.864Z,25.40
2018-11-02T12:26:18.884Z,25.35
2018-11-02T12:27:18.899Z,25.69
2018-11-02T12:28:19.043Z,25.51
2018-11-02T12:29:18.952Z,24.61
2018-11-02T12:30:18.973Z,24.68
2018-11-02T12:31:18.994Z,24.85
2018-11-02T12:32:19.018Z,25.05
2018-11-02T12:33:19.038Z,24.52
2018-11-02T12:34:19.066Z,24.53
2018-11-02T12:35:19.102Z,24.49
2018-11-02T12:36:19.104Z,23.98
2018-11-02T12:37:19.216Z,24.22
2018-11-02T12:38:19.145Z,24.61
2018-11-02T12:39:19.169Z,24.57
2018-11-02T12:40:19.185Z,24.13
2018-11-02T12:41:19.226Z,24.15
2018-11-02T12:42:19.226Z,24.55
2018-11-02T12:43:19.355Z,24.09
2018-11-02T12:44:19.282Z,23.68
2018-11-02T12:45:19.298Z,23.22
2018-11-02T12:46:19.320Z,22.54
2018-11-02T12:47:19.348Z,22.21
2018-11-02T12:48:19.402Z,22.36
2018-11-02T12:49:19.794Z,22.21
2018-11-02T12:50:19.592Z,22.36
2018-11-02T12:51:19.482Z,22.97
2018-11-02T12:52:19.449Z,23.25
2018-11-02T12:53:19.473Z,23.54